Otay Mountain (75, 260, 536) Station Data

Red Flag Warning: No
Fire Weather Zone: 250
SDGE Region: Eastern
Lat/Lon: 32.599/-116.843

Observations

Time Wind Speed/Gust Temp(F) RH Fuel Moist Fuel Temp(F) Dewpt(F) Tmax(F) Tmin(F) Accum Precip 10-min Precip SL Press(mb)
6/27 5:00pm 253 8 G 12 82° 10% - - 21° 85.7° 78° - - -
6/27 4:50pm 256 8 G 12 83° 9% - - 19° 85.7° 78° - - -
6/27 4:40pm 258 8 G 12 83° 9% - - 17° 85.7° 78° - - -
6/27 4:30pm 250 8 G 13 83° 8% - - 14° 85.7° 78° - - -
6/27 4:20pm 250 9 G 13 83° 7% - - 13° 85.7° 78° - - -
6/27 4:10pm 245 8 G 11 83° 8% - - 15° 85.7° 78° - - -
6/27 4:00pm 252 9 G 14 83° 7% - - 11° 85.7° 78° - - -
6/27 3:50pm 251 9 G 12 84° 7% - - 13° 85.7° 78° - - -
6/27 3:40pm 255 9 G 14 83° 7% - - 14° 85.7° 78° - - -
6/27 3:30pm 256 10 G 14 83° 7% - - 13° 85.7° 78° - - -
6/27 3:20pm 253 10 G 14 84° 8% - - 16° 85.7° 78° - - -
6/27 3:10pm 252 9 G 12 84° 9% - - 20° 85.7° 78° - - -
6/27 3:00pm 257 9 G 13 82° 9% - - 16° 85.7° 78° - - -
6/27 2:50pm 253 7 G 11 83° 10% - - 21° 85.7° 78° - - -
6/27 2:40pm 255 9 G 13 83° 9% - - 17° 85.7° 78° - - -
6/27 2:30pm 253 7 G 13 84° 9% - - 18° 85.7° 78° - - -
6/27 2:20pm 254 8 G 13 83° 10% - - 21° 85.7° 78° - - -
6/27 2:10pm 256 9 G 14 83° 11% - - 23° 85.7° 78° - - -
6/27 2:00pm 259 10 G 14 83° 11% - - 23° 85.7° 78° - - -
6/27 1:50pm 256 9 G 14 85° 7% - - 14° 85.7° 78° - - -
6/27 1:40pm 257 9 G 13 84° 10% - - 20° 85.6° 78° - - -
6/27 1:30pm 253 9 G 13 84° 8% - - 17° 85.6° 78° - - -
6/27 1:20pm 261 9 G 13 84° 8% - - 16° 85.6° 78° - - -
6/27 1:10pm 254 9 G 12 84° 8% - - 17° 85.6° 78° - - -
6/27 1:00pm 250 8 G 13 84° 10% - - 22° 85.6° 78° - - -
6/27 12:50pm 245 7 G 13 84° 11% - - 25° 85.6° 78° - - -
6/27 12:40pm 254 7 G 15 84° 12% - - 27° 85.6° 78° - - -
6/27 12:30pm 247 6 G 10 84° 14% - - 31° 85.6° 78° - - -
6/27 12:20pm 269 7 G 12 84° 15% - - 31° 85.4° 78° - - -
6/27 12:10pm 272 8 G 15 84° 14% - - 31° 85.4° 78° - - -
6/27 12:00pm 276 8 G 17 84° 14% - - 29° 85.2° 78° - - -
6/27 11:50am 285 8 G 13 84° 14% - - 29° 85.2° 78° - - -
6/27 11:40am 268 7 G 14 84° 14% - - 29° 85.2° 78° - - -
6/27 11:30am 255 8 G 14 83° 13% - - 27° 84.5° 78° - - -
6/27 11:20am 251 9 G 14 83° 13% - - 27° 84.5° 78° - - -
6/27 11:10am 260 9 G 14 84° 13% - - 27° 84.5° 78° - - -
6/27 11:00am 267 8 G 12 83° 11% - - 23° 84.3° 78° - - -
6/27 10:50am 265 8 G 14 84° 9% - - 20° 84.3° 78° - - -
6/27 10:40am 284 7 G 12 84° 9% - - 18° 84.3° 78° - - -
6/27 10:30am 272 7 G 12 83° 9% - - 19° 84.3° 78° - - -
6/27 10:20am 283 8 G 12 83° 9% - - 18° 83.9° 78° - - -
6/27 10:10am 285 7 G 13 83° 9% - - 19° 83.4° 78° - - -
6/27 10:00am 281 7 G 12 82° 9% - - 17° 82.9° 78° - - -
6/27 9:50am 271 8 G 12 82° 9% - - 16° 82.5° 78° - - -
6/27 9:40am 271 9 G 14 81° 8% - - 15° 81.9° 78° - - -
6/27 9:30am 265 8 G 15 81° 8% - - 14° 81.9° 78° - - -
6/27 9:20am 276 8 G 13 81° 8% - - 13° 81.7° 78° - - -
6/27 9:10am 281 7 G 12 81° 7% - - 12° 81.6° 78° - - -
6/27 9:00am 282 6 G 10 81° 7% - - 12° 81.4° 78° - - -
6/27 8:50am 290 8 G 10 81° 7% - - 11° 81.3° 78° - - -
6/27 8:40am 287 8 G 10 80° 7% - - 11° 80.6° 78° - - -
6/27 8:30am 291 9 G 12 80° 7% - - 11° 80.2° 78° - - -
6/27 8:20am 297 9 G 11 80° 7% - - 10° 79.9° 78° - - -
6/27 8:10am 299 11 G 13 79° 7% - - 11° 79.9° 78° - - -
6/27 8:00am 300 12 G 14 79° 7% - - 11° 79.9° 78° - - -
6/27 7:50am 293 12 G 15 80° 7% - - 11° 79.9° 78° - - -
6/27 7:40am 290 13 G 18 79° 7% - - 11° 79.8° 78° - - -
6/27 7:30am 289 13 G 16 79° 7% - - 11° 79.6° 78° - - -
6/27 7:20am 292 14 G 16 79° 7% - - 11° 79.5° 78° - - -
6/27 7:10am 300 13 G 16 79° 8% - - 12° 79.5° 78° - - -
6/27 7:00am 298 14 G 16 79° 8% - - 12° 79.5° 78° - - -
6/27 6:50am 298 14 G 17 79° 8% - - 12° 79.5° 78° - - -
6/27 6:40am 297 14 G 18 79° 8% - - 12° 79.5° 78° - - -
6/27 6:30am 299 13 G 15 79° 8% - - 14° 79.5° 78° - - -
6/27 6:20am 298 12 G 15 79° 8% - - 13° 79.5° 78° - - -
6/27 6:10am 297 12 G 16 79° 8% - - 12° 79.5° 78° - - -
6/27 6:00am 298 12 G 15 78° 8% - - 12° 79.5° 78° - - -
6/27 5:50am 288 14 G 18 78° 8% - - 12° 79.5° 78° - - -
6/27 5:40am 293 12 G 14 78° 7% - - 10° 79.5° 78° - - -
6/27 5:30am 297 11 G 15 78° 7% - - 79.5° 78° - - -
6/27 5:20am 291 12 G 15 78° 7% - - 79.5° 78° - - -
6/27 5:10am 284 11 G 14 79° 7% - - 79.5° 78° - - -
6/27 5:00am 284 12 G 15 79° 7% - - 79.5° 78° - - -
6/27 4:50am 281 13 G 16 79° 7% - - 79.5° 78° - - -
6/27 4:40am 288 14 G 19 79° 6% - - 79.5° 78° - - -
6/27 4:30am 290 13 G 16 79° 6% - - 79.5° 78° - - -
6/27 4:20am 290 13 G 16 79° 6% - - 79.5° 78° - - -
6/27 4:10am 289 13 G 16 79° 6% - - 79.5° 78° - - -
6/27 4:00am 290 13 G 15 79° 6% - - 79.5° 78° - - -
6/27 3:50am 288 13 G 16 79° 7% - - 79.5° 78° - - -
6/27 3:40am 286 13 G 18 79° 7% - - 79.5° 78° - - -
6/27 3:30am 283 14 G 17 79° 7% - - 79.5° 78° - - -
6/27 3:20am 281 13 G 17 79° 7% - - 11° 79.5° 78° - - -
6/27 3:10am 283 14 G 19 79° 8% - - 11° 79.5° 78° - - -
6/27 3:00am 283 15 G 22 79° 7% - - 11° 79.5° 78° - - -
6/27 2:50am 282 15 G 19 79° 7% - - 10° 79.5° 78° - - -
6/27 2:40am 283 14 G 18 79° 7% - - 10° 79.2° 78° - - -
6/27 2:30am 282 15 G 19 79° 8% - - 11° 79.2° 78° - - -
6/27 2:20am 283 14 G 18 79° 8% - - 13° 79.1° 78° - - -
6/27 2:10am 291 14 G 18 78° 9% - - 14° 79.1° 78° - - -
6/27 2:00am 293 16 G 19 79° 8% - - 14° 79.1° 78° - - -
6/27 1:50am 295 15 G 19 79° 8% - - 13° 79.1° 78° - - -
6/27 1:40am 299 14 G 17 78° 8% - - 12° 78.9° 78° - - -
6/27 1:30am 302 13 G 18 78° 8% - - 11° 78.9° 78° - - -
6/27 1:20am 302 13 G 16 78° 8% - - 12° 78.8° 78° - - -
6/27 1:10am 303 13 G 17 78° 9% - - 14° 78.8° 78° - - -
6/27 1:00am 305 12 G 18 78° 9% - - 15° 78.8° 78° - - -
6/27 12:50am 306 11 G 16 78° 9% - - 16° 78.8° 78° - - -
6/27 12:40am 305 12 G 16 78° 9% - - 16° 78.8° 78° - - -
6/27 12:30am 303 13 G 17 78° 9% - - 15° 78.8° 78° - - -
6/27 12:20am 306 13 G 17 78° 8% - - 11° 78.8° 78° - - -
6/27 12:10am 306 11 G 17 78° 6% - - 78.8° 78° - - -
6/27 12:00am 309 11 G 16 78° 6% - - 89.9° 78.1° - - -
6/26 11:50pm 322 12 G 15 79° 6% - - 89.9° 78.4° - - -
6/26 11:40pm 323 13 G 17 79° 5% - - 89.9° 78.8° - - -
6/26 11:30pm 315 12 G 18 79° 5% - - 89.9° 78.9° - - -
6/26 11:20pm 309 12 G 17 79° 4% - - - 89.9° 79° - - -
6/26 11:10pm 304 13 G 18 79° 4% - - - 89.9° 79.1° - - -
6/26 11:00pm 303 14 G 19 79° 4% - - - 89.9° 79.1° - - -
6/26 10:50pm 303 14 G 18 79° 4% - - - 89.9° 79.1° - - -
6/26 10:40pm 301 15 G 19 80° 4% - - - 89.9° 79.4° - - -
6/26 10:30pm 302 15 G 18 80° 4% - - - 89.9° 79.5° - - -
6/26 10:20pm 303 16 G 19 80° 4% - - - 89.9° 79.5° - - -
6/26 10:10pm 303 15 G 19 80° 6% - - 89.9° 79.5° - - -
6/26 10:00pm 304 15 G 19 80° 7% - - 10° 89.9° 79.5° - - -
6/26 9:50pm 305 15 G 19 80° 8% - - 12° 89.9° 79.5° - - -
6/26 9:40pm 303 15 G 19 80° 7% - - 12° 89.9° 79.5° - - -
6/26 9:30pm 304 15 G 20 80° 7% - - 12° 89.9° 79.6° - - -
6/26 9:20pm 302 15 G 20 80° 8% - - 13° 89.9° 79.8° - - -
6/26 9:10pm 303 16 G 19 80° 8% - - 14° 89.9° 80° - - -
6/26 9:00pm 304 16 G 21 80° 8% - - 15° 89.9° 80° - - -
6/26 8:50pm 300 15 G 20 80° 8% - - 14° 89.9° 80° - - -
6/26 8:40pm 300 17 G 21 81° 8% - - 13° 89.9° 80.1° - - -
6/26 8:30pm 302 15 G 20 80° 8% - - 13° 89.9° 80.1° - - -
6/26 8:20pm 299 16 G 20 81° 7% - - 12° 89.9° 80.1° - - -
6/26 8:10pm 295 16 G 21 81° 8% - - 13° 89.9° 80.1° - - -
6/26 8:00pm 290 17 G 22 81° 8% - - 14° 89.9° 80.4° - - -
6/26 7:50pm 286 17 G 29 82° 8% - - 14° 89.9° 80.9° - - -
6/26 7:40pm 282 16 G 25 82° 8% - - 15° 89.9° 80.9° - - -
6/26 7:30pm 278 16 G 23 82° 8% - - 16° 89.9° 80.9° - - -
6/26 7:20pm 279 19 G 26 82° 8% - - 15° 89.9° 80.9° - - -
6/26 7:10pm 278 19 G 27 82° 8% - - 14° 89.9° 80.9° - - -
6/26 7:00pm 278 20 G 26 82° 8% - - 14° 89.9° 80.9° - - -
6/26 6:50pm 280 19 G 28 83° 8% - - 16° 89.9° 80.9° - - -
6/26 6:40pm 280 18 G 25 83° 9% - - 18° 89.9° 80.9° - - -
6/26 6:30pm 280 19 G 26 84° 9% - - 18° 89.9° 80.9° - - -
6/26 6:20pm 279 19 G 24 84° 9% - - 19° 89.9° 80.9° - - -
6/26 6:10pm 280 19 G 24 85° 9% - - 20° 89.9° 80.9° - - -
6/26 6:00pm 282 18 G 25 85° 9% - - 20° 89.9° 80.9° - - -
6/26 5:50pm 278 17 G 23 85° 10% - - 23° 89.9° 80.9° - - -
6/26 5:40pm 279 16 G 21 86° 11% - - 25° 89.9° 80.9° - - -
6/26 5:30pm 279 17 G 25 86° 11% - - 26° 89.9° 80.9° - - -
6/26 5:20pm 279 17 G 23 86° 11% - - 25° 89.9° 80.9° - - -
6/26 5:10pm 282 16 G 23 87° 11% - - 25° 89.9° 80.9° - - -
6/26 5:00pm 280 17 G 24 87° 10% - - 23° 89.9° 80.9° - - -
6/26 4:50pm 280 17 G 24 87° 10% - - 23° 89.9° 80.9° - - -
6/26 4:40pm 285 17 G 22 87° 11% - - 26° 89.9° 80.9° - - -
6/26 4:30pm 283 18 G 22 87° 10% - - 24° 89.9° 80.9° - - -
6/26 4:20pm 281 17 G 24 87° 11% - - 26° 89.9° 80.9° - - -
6/26 4:10pm 281 16 G 22 87° 11% - - 27° 89.9° 80.9° - - -
6/26 4:00pm 281 15 G 20 87° 11% - - 27° 89.9° 80.9° - - -
6/26 3:50pm 287 15 G 22 87° 12% - - 29° 89.9° 80.9° - - -
6/26 3:40pm 287 14 G 22 87° 12% - - 28° 89.9° 80.9° - - -
6/26 3:30pm 286 15 G 20 87° 12% - - 27° 89.9° 80.9° - - -
6/26 3:20pm 282 15 G 23 87° 12% - - 28° 89.9° 80.9° - - -
6/26 3:10pm 280 16 G 23 87° 12% - - 27° 89.9° 80.9° - - -
6/26 3:00pm 285 15 G 20 88° 12% - - 28° 89.9° 80.9° - - -
6/26 2:50pm 285 15 G 21 87° 12% - - 28° 89.9° 80.9° - - -
6/26 2:40pm 280 15 G 21 88° 11% - - 26° 89.9° 80.9° - - -
6/26 2:30pm 281 16 G 22 88° 10% - - 25° 89.9° 80.9° - - -
6/26 2:20pm 286 14 G 18 87° 11% - - 26° 89.9° 80.9° - - -
6/26 2:10pm 287 15 G 20 87° 10% - - 24° 89.9° 80.9° - - -
6/26 2:00pm 286 15 G 19 87° 10% - - 25° 89.9° 80.9° - - -
6/26 1:50pm 288 15 G 19 88° 10% - - 24° 89.9° 80.9° - - -
6/26 1:40pm 286 14 G 20 87° 10% - - 24° 89.9° 80.9° - - -
6/26 1:30pm 285 13 G 19 87° 11% - - 26° 89.9° 80.9° - - -
6/26 1:20pm 282 13 G 18 87° 11% - - 27° 89.9° 80.9° - - -
6/26 1:10pm 281 13 G 19 88° 10% - - 24° 89.9° 80.9° - - -
6/26 1:00pm 280 13 G 19 88° 9% - - 21° 89.9° 80.9° - - -
6/26 12:50pm 281 12 G 18 88° 8% - - 20° 89.9° 80.9° - - -
6/26 12:40pm 291 11 G 17 88° 9% - - 21° 89.9° 80.9° - - -
6/26 12:30pm 299 11 G 15 87° 8% - - 20° 89.9° 80.9° - - -
6/26 12:20pm 299 12 G 17 88° 8% - - 19° 89.9° 80.9° - - -
6/26 12:10pm 296 12 G 16 89° 8% - - 19° 89.7° 80.9° - - -
6/26 12:00pm 302 11 G 18 89° 7% - - 17° 89.7° 80.9° - - -
6/26 11:50am 302 12 G 16 88° 7% - - 15° 89° 80.9° - - -
6/26 11:40am 302 10 G 15 88° 7% - - 17° 88.9° 80.9° - - -
6/26 11:30am 298 11 G 17 88° 7% - - 16° 88.9° 80.9° - - -
6/26 11:20am 286 11 G 16 88° 8% - - 18° 88.9° 80.9° - - -
6/26 11:10am 288 11 G 17 88° 8% - - 19° 88.9° 80.9° - - -
6/26 11:00am 303 11 G 16 88° 7% - - 17° 88.7° 80.9° - - -
6/26 10:50am 301 12 G 17 88° 6% - - 13° 88.5° 80.9° - - -
6/26 10:40am 310 12 G 17 88° 6% - - 13° 88.5° 80.9° - - -
6/26 10:30am 311 12 G 17 88° 6% - - 12° 88.5° 80.9° - - -
6/26 10:20am 312 10 G 16 88° 6% - - 12° 88.3° 80.9° - - -
6/26 10:10am 309 12 G 19 87° 6% - - 12° 87.8° 80.9° - - -
6/26 10:00am 312 13 G 16 87° 6% - - 12° 87.8° 80.9° - - -
6/26 9:50am 310 11 G 17 87° 7% - - 14° 87.8° 80.9° - - -
6/26 9:40am 309 11 G 16 87° 8% - - 17° 87.3° 80.9° - - -
6/26 9:30am 312 11 G 15 87° 9% - - 20° 87.3° 80.9° - - -
6/26 9:20am 307 11 G 17 86° 9% - - 22° 86.7° 80.9° - - -
6/26 9:10am 295 10 G 15 86° 10% - - 24° 86.5° 80.9° - - -
6/26 9:00am 299 10 G 13 86° 12% - - 27° 86.5° 80.9° - - -
6/26 8:50am 303 9 G 12 86° 12% - - 26° 86.5° 80.9° - - -
6/26 8:40am 307 9 G 12 86° 12% - - 27° 86.5° 80.9° - - -
6/26 8:30am 305 8 G 10 85° 12% - - 27° 86.5° 80.9° - - -
6/26 8:20am 303 8 G 12 85° 12% - - 26° 86.5° 80.9° - - -
6/26 8:10am 298 8 G 11 85° 12% - - 26° 86.5° 80.9° - - -
6/26 8:00am 298 8 G 11 85° 11% - - 24° 86.5° 80.9° - - -
6/26 7:50am 302 8 G 10 85° 10% - - 23° 86.5° 80.9° - - -
6/26 7:40am 303 9 G 12 86° 10% - - 24° 86.5° 80.9° - - -
6/26 7:30am 301 10 G 14 86° 11% - - 24° 86.4° 80.9° - - -
6/26 7:20am 298 10 G 15 86° 11% - - 26° 86.4° 80.9° - - -
6/26 7:10am 300 10 G 14 86° 11% - - 26° 86.4° 80.9° - - -
6/26 7:00am 300 12 G 16 86° 10% - - 24° 86.4° 80.9° - - -
6/26 6:50am 297 11 G 15 86° 10% - - 23° 86.3° 80.9° - - -
6/26 6:40am 298 10 G 15 86° 10% - - 23° 86.2° 80.9° - - -
6/26 6:30am 297 10 G 16 86° 10% - - 24° 86° 80.9° - - -
6/26 6:20am 304 8 G 13 85° 11% - - 25° 85.6° 80.9° - - -
6/26 6:10am 299 11 G 16 84° 11% - - 25° 84.5° 80.9° - - -
6/26 6:00am 299 12 G 18 84° 12% - - 26° 84.5° 80.9° - - -